Time;durP1;ratioP1;P1;durP2;ratioP2;P2;SDS_P1;SDS_P2;PMS_P1;PMS_P2;Temp;Humidity;BMP_temperature;BMP_pressure;BME280_temperature;BME280_humidity;BME280_pressure;Samples;Min_cycle;Max_cycle;Signal;HPM_P1;HPM_P2
2024/01/07 07:01:24;;;;;;;1.53;1.40;;;3.20;99.90;4.50;101709.00;;;;6190851;22;2001272;-71
2024/01/07 07:03:55;;;;;;;2.30;1.60;;;3.10;99.90;5.00;101708.00;;;;6278210;22;20660;-71
2024/01/07 07:06:29;;;;;;;3.10;2.40;;;3.20;99.90;4.70;101730.00;;;;6251530;22;20135;-71
2024/01/07 07:09:01;;;;;;;1.13;1.13;;;3.30;99.90;4.90;101712.00;;;;6252357;22;20184;-71
2024/01/07 07:11:35;;;;;;;0.87;0.87;;;3.20;99.90;5.10;101721.00;;;;6225880;22;20232;-71
2024/01/07 07:14:09;;;;;;;3.40;2.17;;;3.30;99.90;5.20;101736.00;;;;6251173;22;20138;-71
2024/01/07 07:16:40;;;;;;;2.70;2.23;;;3.40;99.90;4.60;101739.00;;;;6278397;22;20145;-71
2024/01/07 07:19:15;;;;;;;9.50;6.50;;;3.30;99.90;4.30;101721.00;;;;6278583;22;20146;-71
2024/01/07 07:21:46;;;;;;;6.07;2.90;;;3.20;99.90;4.60;101735.00;;;;6251733;22;20589;-71
2024/01/07 07:24:20;;;;;;;1.03;1.03;;;3.20;99.90;4.90;101751.00;;;;6251545;22;20142;-71
2024/01/07 07:26:54;;;;;;;2.90;2.70;;;3.20;99.90;4.70;101760.00;;;;6225243;22;20157;-72
2024/01/07 07:29:37;;;;;;;3.30;3.00;;;3.20;99.90;4.50;101738.00;;;;6250974;22;20209;-72
2024/01/07 07:32:08;;;;;;;3.83;3.23;;;3.20;99.90;4.10;101750.00;;;;6251979;22;20149;-72
2024/01/07 07:34:39;;;;;;;17.60;8.63;;;3.00;99.90;3.80;101698.00;;;;6250980;22;20160;-71
2024/01/07 07:37:14;;;;;;;6.90;5.73;;;2.90;99.90;3.60;101746.00;;;;6278436;22;20169;-71
2024/01/07 07:39:45;;;;;;;3.10;2.90;;;2.80;99.90;4.10;101762.00;;;;6250882;22;20219;-70
2024/01/07 07:42:19;;;;;;;5.83;4.57;;;2.90;99.90;4.20;101762.00;;;;6249925;22;20226;-71
2024/01/07 07:44:57;;;;;;;10.13;5.20;;;2.80;99.90;4.50;101767.00;;;;6277888;22;20149;-71
2024/01/07 07:47:31;;;;;;;10.57;7.33;;;3.00;99.90;4.20;101786.00;;;;6277636;22;20161;-71
2024/01/07 07:50:03;;;;;;;5.40;3.97;;;3.10;99.90;4.90;101767.00;;;;6225606;22;20191;-72
2024/01/07 07:52:41;;;;;;;4.43;2.57;;;3.20;99.90;4.90;101795.00;;;;6278064;22;20145;-72
2024/01/07 07:55:18;;;;;;;5.80;3.90;;;3.30;99.90;4.20;101788.00;;;;6251005;22;20137;-71
2024/01/07 07:57:51;;;;;;;2.93;2.63;;;3.20;99.90;4.00;101784.00;;;;6277871;22;20168;-71
2024/01/07 08:00:22;;;;;;;7.37;6.20;;;3.00;99.90;4.70;101770.00;;;;6237512;23;20200;-71
2024/01/07 08:02:54;;;;;;;1.13;1.03;;;3.10;99.90;4.50;101788.00;;;;6247344;23;20173;-72
2024/01/07 08:05:27;;;;;;;0.93;0.40;;;3.10;99.90;5.00;101800.00;;;;6246906;23;20164;-71
2024/01/07 08:08:03;;;;;;;13.60;7.37;;;3.20;99.90;3.90;101792.00;;;;6247298;23;20138;-71
2024/01/07 08:10:39;;;;;;;2.20;2.00;;;2.90;99.90;4.00;101798.00;;;;6246957;23;20590;-71
2024/01/07 08:13:13;;;;;;;11.97;6.87;;;2.90;99.90;3.80;101728.00;;;;6219716;23;20146;-71
2024/01/07 08:15:45;;;;;;;3.23;3.00;;;2.90;99.90;4.10;101780.00;;;;6247198;23;20161;-71
2024/01/07 08:18:20;;;;;;;4.53;2.40;;;2.90;99.90;4.30;101785.00;;;;6220239;23;20694;-71
2024/01/07 08:20:51;;;;;;;3.83;3.53;;;3.00;99.90;5.00;101789.00;;;;6220780;23;20161;-71
2024/01/07 08:23:28;;;;;;;6.93;4.63;;;3.20;99.90;4.50;101810.00;;;;6219746;23;20166;-71
2024/01/07 08:26:02;;;;;;;6.07;5.30;;;3.20;99.90;5.10;101815.00;;;;6246911;23;20138;-72
2024/01/07 08:28:33;;;;;;;5.13;3.73;;;3.40;99.90;4.30;101807.00;;;;6246491;23;20156;-71
2024/01/07 08:31:04;;;;;;;6.70;4.63;;;3.10;99.90;4.10;101752.00;;;;6246886;23;20489;-71
2024/01/07 08:33:39;;;;;;;4.13;3.83;;;3.00;99.90;4.40;101750.00;;;;6220107;23;20241;-72
2024/01/07 08:36:10;;;;;;;10.40;8.03;;;3.00;99.90;4.40;101756.00;;;;6247215;23;20138;-71
2024/01/07 08:38:41;;;;;;;4.43;2.97;;;3.10;99.90;4.50;101754.00;;;;6220108;23;20565;-71
2024/01/07 08:41:18;;;;;;;7.63;5.97;;;3.10;99.90;4.30;101815.00;;;;6247324;23;20149;-71
2024/01/07 08:43:50;;;;;;;17.27;9.97;;;3.10;99.90;3.80;101821.00;;;;6220310;23;20501;-72
2024/01/07 08:46:25;;;;;;;0.97;0.77;;;2.90;99.90;4.10;101816.00;;;;6220173;23;20244;-71
2024/01/07 08:48:59;;;;;;;5.67;4.53;;;2.80;99.90;4.70;101826.00;;;;6220130;23;20157;-71
2024/01/07 08:51:30;;;;;;;7.00;5.13;;;3.00;99.90;4.10;101823.00;;;;6246844;23;20181;-71
2024/01/07 08:54:21;;;;;;;12.30;7.10;;;3.10;99.90;3.90;101823.00;;;;6246671;23;20204;-71
2024/01/07 08:56:49;;;;;;;7.80;4.23;;;2.90;99.90;4.00;101720.00;;;;6247005;23;20160;-71
2024/01/07 08:59:21;;;;;;;4.23;2.60;;;2.90;99.90;4.20;101831.00;;;;6194623;22;20157;-72
2024/01/07 09:02:01;;;;;;;7.93;7.13;;;3.00;99.90;3.70;101835.00;;;;6250322;22;20218;-71
2024/01/07 09:04:43;;;;;;;6.93;6.27;;;2.80;99.90;3.50;101850.00;;;;6249968;22;20138;-71
2024/01/07 09:07:32;;;;;;;9.07;5.80;;;2.60;99.90;3.30;101852.00;;;;6276937;22;20149;-70
2024/01/07 09:10:41;;;;;;;9.53;7.33;;;2.60;99.90;3.50;101874.00;;;;6250861;22;20600;-70
2024/01/07 09:13:19;;;;;;;7.37;3.37;;;2.50;99.90;3.50;101859.00;;;;6248458;22;20194;-70
2024/01/07 09:16:38;;;;;;;7.93;7.17;;;2.60;99.90;3.20;101853.00;;;;6250659;22;20140;-70
2024/01/07 09:19:42;;;;;;;8.13;5.17;;;2.50;99.90;3.20;101863.00;;;;6250191;22;20592;-70
2024/01/07 09:26:21;;;;;;;10.57;6.73;;;2.60;99.90;3.50;101870.00;;;;6254948;22;20160;-70
2024/01/07 09:29:32;;;;;;;6.97;5.10;;;2.60;99.90;3.90;101898.00;;;;6249328;22;20461;-70
2024/01/07 09:32:39;;;;;;;3.17;2.93;;;2.70;99.90;3.80;101895.00;;;;6250261;22;20171;-70
2024/01/07 09:35:47;;;;;;;5.73;3.43;;;2.80;99.90;4.60;101892.00;;;;6250389;22;20566;-70
2024/01/07 09:38:58;;;;;;;8.33;4.03;;;3.00;99.90;4.30;101889.00;;;;6277186;22;20149;-70
2024/01/07 09:42:09;;;;;;;3.33;1.40;;;3.00;99.90;5.20;101906.00;;;;6249953;22;20158;-70
2024/01/07 09:45:15;;;;;;;11.47;7.37;;;3.00;99.90;3.50;101913.00;;;;6250692;22;20157;-70
2024/01/07 09:48:29;;;;;;;3.80;3.40;;;2.90;99.90;3.90;101919.00;;;;6250195;22;20152;-70
2024/01/07 09:51:37;;;;;;;14.37;8.57;;;2.80;99.90;3.50;101917.00;;;;6232558;22;20137;-70
2024/01/07 09:54:32;;;;;;;16.43;10.43;;;2.70;99.90;3.90;101911.00;;;;6250103;22;20206;-70
2024/01/07 09:57:33;;;;;;;2.57;2.47;;;2.80;99.90;3.90;101917.00;;;;6222788;22;20485;-70
2024/01/07 10:00:43;;;;;;;8.87;7.87;;;2.80;99.90;3.80;101930.00;;;;6246579;22;20176;-70
2024/01/07 10:03:56;;;;;;;2.07;1.97;;;2.80;99.90;4.10;101916.00;;;;6207422;23;20186;-70
2024/01/07 10:06:37;;;;;;;5.50;4.20;;;2.80;99.90;4.20;101936.00;;;;6212993;23;20154;-70
2024/01/07 10:09:31;;;;;;;10.03;6.13;;;2.80;99.90;3.50;101882.00;;;;6212792;23;20154;-73
2024/01/07 10:12:38;;;;;;;7.33;4.70;;;2.80;99.90;3.70;101943.00;;;;6210938;23;20653;-70
2024/01/07 10:15:19;;;;;;;9.60;6.87;;;2.60;99.90;3.40;101957.00;;;;6211666;23;20158;-70
2024/01/07 10:17:54;;;;;;;13.77;8.80;;;2.70;99.90;3.00;101938.00;;;;6239852;22;20162;-70
2024/01/07 10:20:25;;;;;;;4.80;3.13;;;2.60;99.90;3.60;101936.00;;;;6250127;22;20580;-70
2024/01/07 10:33:32;;;;;;;5.30;4.63;;;2.20;99.90;3.30;101932.00;;;;4975774;27;3501101;-70
2024/01/07 10:36:06;;;;;;;7.50;5.63;;;2.40;99.90;3.50;101948.00;;;;5084598;28;20695;-69
2024/01/07 10:38:44;;;;;;;3.90;3.10;;;2.50;99.90;3.80;101896.00;;;;5063851;28;20236;-69
2024/01/07 10:41:23;;;;;;;2.07;1.97;;;2.60;99.90;3.80;101948.00;;;;5067112;28;20200;-69
2024/01/07 10:43:52;;;;;;;10.53;7.00;;;2.70;99.90;3.50;101962.00;;;;5066219;28;20218;-69
2024/01/07 10:46:21;;;;;;;3.23;1.47;;;2.60;99.90;4.10;101958.00;;;;5067952;28;20178;-69
2024/01/07 10:49:10;;;;;;;6.53;5.57;;;2.70;99.90;3.80;101974.00;;;;5065320;28;20192;-69
2024/01/07 10:51:41;;;;;;;11.27;7.90;;;2.70;99.90;3.70;101959.00;;;;5042537;28;20193;-69
2024/01/07 10:54:23;;;;;;;9.93;5.30;;;2.70;99.90;3.50;101976.00;;;;5063770;28;20188;-70
2024/01/07 10:57:33;;;;;;;4.50;2.90;;;2.60;99.90;3.50;101982.00;;;;5077978;28;20184;-73
2024/01/07 11:00:19;;;;;;;3.07;2.77;;;2.70;99.90;4.60;101975.00;;;;5072066;28;20280;-72
2024/01/07 11:03:33;;;;;;;7.60;5.93;;;2.80;99.90;3.80;101977.00;;;;5053315;28;20544;-74
2024/01/07 11:06:31;;;;;;;4.80;4.27;;;2.80;99.90;3.40;101975.00;;;;5069976;28;20198;-76
2024/01/07 11:12:52;;;;;;;8.23;6.13;;;2.60;99.90;3.50;101973.00;;;;5072108;28;20243;-75
2024/01/07 11:16:09;;;;;;;1.67;1.57;;;2.60;99.90;4.70;101978.00;;;;5068487;28;20189;-74
2024/01/07 11:19:05;;;;;;;9.37;7.33;;;2.80;99.90;3.40;101973.00;;;;5066854;28;20243;-75
2024/01/07 11:22:22;;;;;;;7.40;6.37;;;2.70;99.90;3.60;101973.00;;;;5065571;28;20189;-72
2024/01/07 11:28:50;;;;;;;5.20;3.90;;;2.60;99.90;3.60;101985.00;;;;5067878;28;20237;-76
2024/01/07 11:32:00;;;;;;;7.13;5.20;;;2.50;99.90;3.60;101987.00;;;;5040341;28;20239;-76
2024/01/07 11:34:51;;;;;;;8.00;5.70;;;2.60;99.90;3.70;101983.00;;;;5072158;28;20269;-75
2024/01/07 11:37:46;;;;;;;6.27;3.07;;;2.60;99.90;3.90;101982.00;;;;5079626;28;20264;-75
2024/01/07 11:40:18;;;;;;;6.83;5.93;;;2.70;99.90;3.80;101959.00;;;;5061646;28;20180;-76
2024/01/07 11:42:51;;;;;;;3.90;2.47;;;2.70;99.90;3.40;101972.00;;;;5053141;28;20190;-77
2024/01/07 11:45:25;;;;;;;3.73;3.43;;;2.60;99.90;3.40;101970.00;;;;5035101;28;20181;-76
2024/01/07 11:47:57;;;;;;;9.33;8.00;;;2.50;99.90;3.30;101965.00;;;;5050094;28;20173;-76
2024/01/07 11:50:31;;;;;;;9.33;5.60;;;2.50;99.90;2.80;101987.00;;;;5054789;28;20265;-76
2024/01/07 11:53:15;;;;;;;5.27;3.67;;;2.40;99.90;3.50;101977.00;;;;5037662;28;20271;-77
2024/01/07 11:55:47;;;;;;;11.20;7.73;;;2.50;99.90;3.30;101959.00;;;;5038569;28;20658;-77
2024/01/07 11:58:19;;;;;;;10.07;6.60;;;2.40;99.90;3.40;101981.00;;;;5045504;28;20185;-76
2024/01/07 12:01:05;;;;;;;2.57;2.07;;;2.50;99.90;4.30;101916.00;;;;5054705;28;20177;-75
2024/01/07 12:04:07;;;;;;;2.30;2.10;;;2.60;99.90;3.80;101987.00;;;;5037115;28;20194;-75
2024/01/07 12:06:51;;;;;;;7.03;5.63;;;2.70;99.90;3.30;101993.00;;;;5020166;28;20251;-75
2024/01/07 12:10:03;;;;;;;1.53;1.43;;;2.70;99.90;3.80;101982.00;;;;5057348;28;20192;-75
2024/01/07 12:13:11;;;;;;;4.27;2.87;;;2.70;99.90;4.50;101920.00;;;;5040228;28;20205;-75
2024/01/07 12:16:28;;;;;;;3.43;3.13;;;2.90;99.90;4.50;101992.00;;;;5041226;28;20205;-75
2024/01/07 12:19:39;;;;;;;7.27;5.17;;;2.80;99.90;3.90;101992.00;;;;5024249;28;20248;-75
2024/01/07 12:22:41;;;;;;;1.90;1.80;;;2.80;99.90;3.80;101985.00;;;;5060622;28;20272;-75
2024/01/07 12:25:33;;;;;;;6.43;4.23;;;2.60;99.90;4.00;101972.00;;;;5040623;28;20258;-75
2024/01/07 12:28:36;;;;;;;7.03;4.87;;;2.60;99.90;3.70;101984.00;;;;5036997;28;20567;-74
2024/01/07 12:31:41;;;;;;;7.87;6.23;;;2.50;99.90;3.30;101989.00;;;;5045868;28;20186;-76
2024/01/07 12:34:40;;;;;;;9.10;6.20;;;2.60;99.90;3.00;101987.00;;;;5052984;28;20225;-76
2024/01/07 12:37:20;;;;;;;3.07;2.63;;;2.50;99.90;3.80;102001.00;;;;5060112;28;20209;-76
2024/01/07 12:40:04;;;;;;;4.40;4.03;;;2.60;99.90;4.30;101988.00;;;;5020955;28;20194;-76
2024/01/07 12:42:44;;;;;;;15.80;5.87;;;2.70;99.90;3.50;101993.00;;;;5047647;28;20262;-76
2024/01/07 12:48:45;;;;;;;7.60;5.57;;;2.60;99.90;3.70;102004.00;;;;5039240;28;20208;-76
2024/01/07 12:51:22;;;;;;;4.40;4.00;;;2.60;99.90;4.20;101955.00;;;;5048446;28;20296;-76
2024/01/07 12:53:57;;;;;;;5.07;4.57;;;2.70;99.90;3.60;101994.00;;;;5038859;28;20569;-76
2024/01/07 12:56:23;;;;;;;1.70;1.60;;;2.70;99.90;3.70;102004.00;;;;5039657;28;20196;-75
2024/01/07 12:58:54;;;;;;;1.90;1.80;;;2.60;99.90;4.30;102013.00;;;;5044105;28;20264;-76
2024/01/07 13:01:26;;;;;;;2.20;2.00;;;2.80;99.90;3.70;102020.00;;;;5065463;28;20284;-75
2024/01/07 13:03:57;;;;;;;2.13;1.93;;;2.70;99.90;4.30;102025.00;;;;5052026;28;20637;-76
2024/01/07 13:06:26;;;;;;;4.83;3.93;;;2.80;99.90;3.90;102027.00;;;;5044179;28;20239;-75
2024/01/07 13:08:55;;;;;;;6.47;5.83;;;2.70;99.90;3.40;102011.00;;;;5057111;28;20186;-72
2024/01/07 13:11:28;;;;;;;4.33;3.00;;;2.50;99.90;3.70;101987.00;;;;5053796;28;20208;-72
2024/01/07 13:14:01;;;;;;;9.43;6.30;;;2.50;99.90;3.20;101998.00;;;;5045332;28;20225;-72
2024/01/07 13:16:28;;;;;;;7.60;4.93;;;2.40;99.90;3.40;102011.00;;;;5051996;28;20189;-72
2024/01/07 13:18:58;;;;;;;7.63;4.63;;;2.40;99.90;3.40;101958.00;;;;5015791;28;20651;-72
2024/01/07 13:21:29;;;;;;;6.03;4.40;;;2.50;99.90;3.30;102020.00;;;;5061328;28;20194;-71
2024/01/07 13:23:59;;;;;;;5.00;4.53;;;2.40;99.90;3.20;102021.00;;;;5054232;28;20182;-75
2024/01/07 13:26:30;;;;;;;5.10;4.60;;;2.30;99.90;3.20;102023.00;;;;5022000;28;20268;-75
2024/01/07 13:28:56;;;;;;;8.60;6.17;;;2.20;99.90;3.40;102030.00;;;;5033569;28;20186;-75
2024/01/07 13:31:25;;;;;;;14.63;7.73;;;2.30;99.90;3.30;102034.00;;;;5035075;28;20210;-75
2024/01/07 13:33:57;;;;;;;2.33;2.13;;;2.20;99.90;3.40;102027.00;;;;5045676;28;20604;-75
2024/01/07 13:36:23;;;;;;;4.13;3.83;;;2.30;99.90;3.40;102031.00;;;;5055502;28;20235;-75
2024/01/07 13:38:52;;;;;;;5.17;3.80;;;2.30;99.90;3.30;102037.00;;;;5045935;28;20181;-75
2024/01/07 13:41:18;;;;;;;0.20;0.20;;;2.20;99.90;4.50;102034.00;;;;5064105;28;20189;-76
2024/01/07 13:43:43;;;;;;;4.43;3.53;;;2.50;99.90;4.00;101994.00;;;;5044590;28;20185;-76
2024/01/07 13:46:09;;;;;;;2.17;1.80;;;2.70;99.90;3.50;102065.00;;;;5057769;28;20668;-75
2024/01/07 13:48:39;;;;;;;7.30;5.63;;;2.50;99.90;3.20;102052.00;;;;5038376;28;20268;-75
2024/01/07 13:51:10;;;;;;;8.30;6.73;;;2.40;99.90;2.50;102056.00;;;;5034109;28;20216;-75
2024/01/07 13:53:39;;;;;;;3.17;2.23;;;2.20;99.90;3.50;102041.00;;;;5037031;28;20191;-75
2024/01/07 13:56:08;;;;;;;11.07;7.17;;;2.30;99.90;3.40;102062.00;;;;5040610;28;20182;-75
2024/01/07 13:58:34;;;;;;;4.80;3.80;;;2.40;99.90;3.50;102053.00;;;;5051804;28;20189;-75
2024/01/07 14:00:59;;;;;;;3.90;3.60;;;2.40;99.90;3.30;102070.00;;;;5055154;28;20196;-75
2024/01/07 14:03:30;;;;;;;4.57;3.63;;;2.30;99.90;3.40;102074.00;;;;5059608;28;20201;-75
2024/01/07 14:06:03;;;;;;;4.00;2.93;;;2.30;99.90;3.40;102057.00;;;;5036918;28;20178;-75
2024/01/07 14:08:40;;;;;;;10.60;4.87;;;2.30;99.90;3.10;102074.00;;;;5048770;28;20577;-75
2024/01/07 14:11:14;;;;;;;3.50;2.47;;;2.20;99.90;3.70;102063.00;;;;5050110;28;20213;-75
2024/01/07 14:13:46;;;;;;;3.13;2.77;;;2.30;99.90;3.40;102067.00;;;;5053721;28;20190;-75
2024/01/07 14:16:17;;;;;;;4.40;3.67;;;2.30;99.90;3.10;102077.00;;;;5048662;28;20177;-75
2024/01/07 14:18:52;;;;;;;5.37;4.40;;;2.20;99.90;3.30;102054.00;;;;5041095;28;20191;-75
2024/01/07 14:21:27;;;;;;;5.03;4.53;;;2.30;99.90;3.80;102057.00;;;;5051171;28;20211;-75
2024/01/07 14:23:58;;;;;;;5.90;4.20;;;2.50;99.90;3.30;102049.00;;;;5041787;28;20194;-74
2024/01/07 14:26:24;;;;;;;8.00;5.63;;;2.40;99.90;3.20;102089.00;;;;5043735;28;20190;-74
2024/01/07 14:28:59;;;;;;;4.70;3.43;;;2.50;99.90;3.50;102095.00;;;;5045286;28;20177;-74
2024/01/07 14:31:28;;;;;;;2.50;1.43;;;2.50;99.90;4.40;102104.00;;;;5034672;28;20209;-74
2024/01/07 14:33:59;;;;;;;4.03;2.63;;;2.50;99.90;4.30;102129.00;;;;5055040;28;20190;-74
2024/01/07 14:36:31;;;;;;;4.30;3.90;;;2.70;99.90;3.80;102053.00;;;;5043825;28;20246;-74
2024/01/07 14:38:57;;;;;;;7.85;6.18;;;2.50;99.90;3.70;102129.00;;;;5038957;28;20508;-74
2024/01/07 14:41:26;;;;;;;1.67;1.57;;;2.60;99.90;3.90;102117.00;;;;5068374;28;20596;-74
2024/01/07 14:43:58;;;;;;;2.90;2.57;;;2.50;99.90;3.80;102127.00;;;;5018159;28;20186;-74
2024/01/07 14:46:32;;;;;;;2.10;1.90;;;2.60;99.90;4.00;102121.00;;;;5033607;28;20246;-74
2024/01/07 14:49:00;;;;;;;2.33;1.87;;;2.50;99.90;3.50;102144.00;;;;5054370;28;20192;-74
2024/01/07 14:51:30;;;;;;;4.97;3.90;;;2.50;99.90;3.40;102111.00;;;;5048131;28;20228;-74
2024/01/07 14:53:56;;;;;;;2.67;2.47;;;2.40;99.90;3.20;102068.00;;;;5048013;28;20568;-74
2024/01/07 14:56:27;;;;;;;4.57;3.90;;;2.40;99.90;3.10;102094.00;;;;5058467;28;20178;-76
2024/01/07 14:59:12;;;;;;;3.97;3.67;;;2.30;99.90;3.40;102153.00;;;;5056413;28;20186;-76
2024/01/07 15:02:09;;;;;;;3.43;3.00;;;2.30;99.90;2.70;102148.00;;;;5032361;28;20521;-76
2024/01/07 15:04:54;;;;;;;4.07;3.63;;;2.20;99.90;3.50;102169.00;;;;5026303;28;20195;-75
2024/01/07 15:07:34;;;;;;;6.07;5.47;;;2.30;99.90;3.10;102149.00;;;;5049607;28;20321;-74
2024/01/07 15:10:32;;;;;;;2.87;2.17;;;2.30;99.90;3.20;102171.00;;;;5014277;28;20185;-74
2024/01/07 15:13:15;;;;;;;7.20;5.20;;;2.20;99.90;3.20;102173.00;;;;5042829;28;20201;-74
2024/01/07 15:15:54;;;;;;;1.40;1.30;;;2.20;99.90;3.90;102192.00;;;;5043504;28;20183;-74
2024/01/07 15:18:37;;;;;;;1.93;1.80;;;2.40;99.90;3.30;102125.00;;;;5057225;28;20183;-75
2024/01/07 15:21:20;;;;;;;2.33;2.13;;;2.20;99.90;2.70;102187.00;;;;5041811;28;20181;-74
2024/01/07 15:24:05;;;;;;;3.77;3.43;;;1.90;99.90;3.50;102196.00;;;;5054664;28;20539;-75
2024/01/07 15:26:49;;;;;;;1.43;0.80;;;1.90;99.90;3.90;102231.00;;;;5054173;28;20185;-75
2024/01/07 15:29:34;;;;;;;3.50;2.70;;;2.00;99.90;3.40;102201.00;;;;5044112;28;20190;-74
2024/01/07 15:32:15;;;;;;;5.17;3.63;;;2.00;99.90;3.10;102164.00;;;;5046559;28;20214;-72
2024/01/07 15:35:22;;;;;;;3.07;2.80;;;2.00;99.90;3.00;102234.00;;;;5049279;28;20189;-78
2024/01/07 15:37:56;;;;;;;2.60;2.43;;;1.90;99.90;2.90;102228.00;;;;5033074;28;20204;-78
2024/01/07 15:40:47;;;;;;;1.33;1.23;;;1.80;99.90;3.30;102246.00;;;;5038415;28;20539;-78
2024/01/07 15:43:15;;;;;;;3.17;2.87;;;1.80;99.90;2.80;102168.00;;;;5015064;28;20213;-78
2024/01/07 15:46:32;;;;;;;1.23;1.13;;;1.80;99.90;3.20;102249.00;;;;5060565;28;20236;-78
2024/01/07 15:49:27;;;;;;;3.17;2.37;;;1.90;99.90;3.20;102186.00;;;;5050173;28;20243;-78
2024/01/07 15:52:27;;;;;;;1.00;0.87;;;1.90;99.90;3.50;102260.00;;;;5054613;28;20233;-78
2024/01/07 15:55:22;;;;;;;0.30;0.30;;;1.90;99.90;3.30;102216.00;;;;5029646;28;20603;-78
2024/01/07 15:58:30;;;;;;;4.87;3.97;;;2.00;99.90;2.80;102271.00;;;;5042729;28;20270;-79
2024/01/07 16:01:24;;;;;;;3.03;2.33;;;1.90;99.90;2.80;102242.00;;;;5031639;28;20189;-78
2024/01/07 16:04:02;;;;;;;1.17;1.13;;;1.80;99.90;4.30;102294.00;;;;5023521;28;20225;-78
2024/01/07 16:06:53;;;;;;;1.03;1.03;;;2.10;99.90;3.50;102281.00;;;;5041226;28;20686;-78
2024/01/07 16:09:57;;;;;;;2.57;1.40;;;2.00;99.90;3.20;102228.00;;;;5034266;28;20200;-78
2024/01/07 16:12:54;;;;;;;1.83;1.30;;;2.00;99.90;2.70;102308.00;;;;5032965;28;20219;-78
2024/01/07 16:15:53;;;;;;;1.00;1.00;;;1.80;99.90;2.90;102299.00;;;;5033899;28;20186;-78
2024/01/07 16:19:07;;;;;;;1.90;1.70;;;1.80;99.90;2.10;102243.00;;;;5019460;28;20636;-78
2024/01/07 16:21:58;;;;;;;1.70;1.60;;;1.60;99.90;2.50;102305.00;;;;5055628;28;20185;-78
2024/01/07 16:25:06;;;;;;;2.20;1.23;;;1.50;99.90;2.70;102314.00;;;;5006951;28;20220;-78
2024/01/07 16:28:04;;;;;;;4.10;2.03;;;1.60;99.90;2.70;102259.00;;;;5025025;28;20200;-78
2024/01/07 16:31:01;;;;;;;2.10;1.73;;;1.60;99.90;2.50;102331.00;;;;5059452;28;20251;-78
2024/01/07 16:33:29;;;;;;;2.13;2.03;;;1.50;99.90;2.30;102255.00;;;;5049538;28;20590;-77
2024/01/07 16:36:27;;;;;;;1.53;1.30;;;1.40;99.90;2.80;102340.00;;;;5042972;28;20194;-79
2024/01/07 16:39:17;;;;;;;0.27;0.27;;;1.50;99.90;3.40;102351.00;;;;5033981;28;20197;-79
2024/01/07 16:41:49;;;;;;;1.50;1.40;;;1.60;99.90;1.90;102336.00;;;;5029464;28;20211;-78
2024/01/07 16:44:59;;;;;;;0.60;0.60;;;1.30;99.90;2.30;102357.00;;;;5033345;28;20282;-79
2024/01/07 16:47:48;;;;;;;1.67;1.57;;;1.30;99.90;2.40;102359.00;;;;5044654;28;20197;-79
2024/01/07 16:50:50;;;;;;;1.30;1.23;;;1.20;99.90;2.30;102288.00;;;;5025148;28;20178;-79
2024/01/07 16:53:44;;;;;;;1.37;1.30;;;1.20;99.90;1.80;102350.00;;;;5039066;28;20232;-78
2024/01/07 16:56:36;;;;;;;3.03;2.73;;;1.00;99.90;1.80;102257.00;;;;5046828;28;20641;-79
2024/01/07 16:59:46;;;;;;;1.00;0.90;;;1.00;99.90;1.90;102378.00;;;;5050436;28;20204;-79
2024/01/07 17:02:53;;;;;;;1.83;1.17;;;1.10;99.90;2.60;102391.00;;;;5062995;28;20200;-79
2024/01/07 17:06:04;;;;;;;2.87;2.60;;;1.00;99.90;2.20;102310.00;;;;5052663;28;20256;-79
2024/01/07 17:09:21;;;;;;;0.70;0.57;;;1.00;99.90;2.40;102399.00;;;;5042530;28;20640;-79
2024/01/07 17:12:32;;;;;;;4.70;3.37;;;1.10;99.90;1.70;102327.00;;;;5038171;28;20206;-79
2024/01/07 17:15:39;;;;;;;1.67;1.13;;;0.90;99.90;2.20;102382.00;;;;5026431;28;20205;-79
2024/01/07 17:18:40;;;;;;;1.47;1.37;;;0.90;99.90;1.80;102399.00;;;;5022714;28;20191;-79
2024/01/07 17:21:36;;;;;;;1.43;1.30;;;0.90;99.90;2.10;102417.00;;;;5019785;28;20198;-79
2024/01/07 17:24:22;;;;;;;2.30;2.20;;;1.00;99.90;2.00;102408.00;;;;5022478;28;20198;-81
2024/01/07 17:27:29;;;;;;;0.30;0.30;;;0.90;99.90;1.80;102414.00;;;;5042917;28;20194;-79
2024/01/07 17:30:47;;;;;;;0.20;0.20;;;0.90;99.90;2.40;102432.00;;;;5031763;28;20231;-79
2024/01/07 17:33:58;;;;;;;0.73;0.73;;;0.90;99.90;2.00;102421.00;;;;5018468;28;20228;-79
2024/01/07 17:37:03;;;;;;;0.90;0.83;;;0.80;99.90;2.30;102416.00;;;;5042173;28;20189;-79
2024/01/07 17:40:24;;;;;;;1.40;1.07;;;0.90;99.90;1.80;102347.00;;;;5042482;28;20209;-79
2024/01/07 17:43:43;;;;;;;0.67;0.67;;;0.90;99.90;1.30;102437.00;;;;5035655;28;20218;-79
2024/01/07 17:46:51;;;;;;;1.07;0.97;;;0.80;99.90;1.80;102433.00;;;;5017755;28;20187;-79
2024/01/07 17:50:09;;;;;;;1.17;0.87;;;0.70;99.90;1.40;102436.00;;;;5020137;28;20260;-79
2024/01/07 17:53:12;;;;;;;3.07;2.77;;;0.70;99.90;1.60;102419.00;;;;5038921;28;20264;-78
2024/01/07 17:56:03;;;;;;;1.07;1.07;;;0.70;99.90;2.40;102426.00;;;;5050554;28;20189;-79
2024/01/07 17:59:07;;;;;;;0.70;0.70;;;0.80;99.90;2.60;102454.00;;;;5029205;28;20213;-79
2024/01/07 18:02:12;;;;;;;0.40;0.40;;;0.80;99.90;2.60;102456.00;;;;5027861;28;20191;-79
2024/01/07 18:05:06;;;;;;;1.77;1.67;;;0.90;99.90;1.60;102448.00;;;;5043044;28;20190;-79
2024/01/07 18:07:52;;;;;;;0.40;0.40;;;0.70;99.90;2.70;102441.00;;;;5005183;28;20228;-79
2024/01/07 18:10:27;;;;;;;1.20;1.07;;;0.80;99.90;2.00;102439.00;;;;5042528;28;20281;-79
2024/01/07 18:13:15;;;;;;;0.53;0.53;;;0.70;99.90;3.00;102467.00;;;;5040801;28;20211;-79
2024/01/07 18:16:20;;;;;;;0.93;0.93;;;0.80;99.90;2.40;102400.00;;;;5037129;28;20566;-79
2024/01/07 18:18:59;;;;;;;1.17;1.07;;;0.80;99.90;1.80;102459.00;;;;5037398;28;20195;-79
2024/01/07 18:22:10;;;;;;;1.37;1.27;;;0.70;99.90;2.00;102456.00;;;;5037871;28;20187;-79
2024/01/07 18:25:22;;;;;;;0.50;0.50;;;0.60;99.90;2.10;102485.00;;;;5046376;28;20185;-79
2024/01/07 18:28:44;;;;;;;0.80;0.80;;;0.60;99.90;2.00;102411.00;;;;5039248;28;20197;-78
2024/01/07 18:31:56;;;;;;;1.60;1.40;;;0.60;99.90;2.10;102497.00;;;;5051101;28;20185;-79
2024/01/07 18:34:50;;;;;;;0.80;0.80;;;0.70;99.90;1.90;102470.00;;;;5020195;28;20206;-79
2024/01/07 18:37:45;;;;;;;2.07;1.97;;;0.70;99.90;1.80;102484.00;;;;5024087;28;20185;-79
2024/01/07 18:40:37;;;;;;;1.13;0.97;;;0.60;99.90;2.50;102492.00;;;;5049544;28;20196;-79
2024/01/07 18:43:13;;;;;;;0.40;0.40;;;0.70;99.90;2.60;102498.00;;;;4947278;28;20209;-79
2024/01/07 18:46:05;;;;;;;2.43;1.87;;;0.90;99.90;2.10;102495.00;;;;5026952;28;20598;-79
2024/01/07 18:48:48;;;;;;;4.53;4.03;;;0.80;99.90;1.60;102531.00;;;;5008857;28;20194;-78
2024/01/07 18:51:55;;;;;;;0.30;0.30;;;0.70;99.90;2.10;102518.00;;;;5067391;28;20239;-79
2024/01/07 18:54:32;;;;;;;0.40;0.40;;;0.70;99.90;2.40;102508.00;;;;5025733;28;20672;-79
2024/01/07 18:57:42;;;;;;;0.63;0.50;;;0.80;99.90;1.50;102519.00;;;;5037330;28;20192;-79
2024/01/07 19:00:37;;;;;;;1.87;1.50;;;0.70;99.90;2.10;102511.00;;;;5043453;28;20189;-79
2024/01/07 19:03:40;;;;;;;0.70;0.70;;;0.60;99.90;1.80;102539.00;;;;5037216;28;20618;-79
2024/01/07 19:06:43;;;;;;;1.73;1.40;;;0.70;99.90;1.50;102455.00;;;;5071997;28;20189;-78
2024/01/07 19:09:50;;;;;;;0.73;0.73;;;0.60;99.90;1.80;102475.00;;;;5028427;28;20212;-79
2024/01/07 19:12:56;;;;;;;2.20;1.53;;;0.70;99.90;2.20;102537.00;;;;5035615;28;20246;-79
2024/01/07 19:16:03;;;;;;;1.30;1.20;;;0.80;99.90;1.60;102534.00;;;;5025796;28;20634;-78
2024/01/07 19:18:52;;;;;;;0.60;0.60;;;0.70;99.90;1.80;102540.00;;;;5046153;28;20322;-79
2024/01/07 19:21:26;;;;;;;2.87;1.20;;;0.60;99.90;2.50;102527.00;;;;5028176;28;20201;-79
2024/01/07 19:24:06;;;;;;;2.33;1.47;;;0.80;99.90;1.50;102518.00;;;;5038428;28;20182;-79
2024/01/07 19:27:01;;;;;;;0.63;0.63;;;0.60;99.90;2.10;102548.00;;;;5049531;28;20238;-79
2024/01/07 19:29:59;;;;;;;1.50;1.17;;;0.70;99.90;1.60;102545.00;;;;5031961;28;20196;-79
2024/01/07 19:32:52;;;;;;;1.48;1.05;;;0.60;99.90;1.70;102534.00;;;;5047955;28;20514;-79
2024/01/07 19:35:48;;;;;;;0.67;0.67;;;0.60;99.90;2.40;102549.00;;;;5018594;28;20182;-79
2024/01/07 19:38:42;;;;;;;1.03;1.03;;;0.80;99.90;2.10;102548.00;;;;5045007;28;20182;-79
2024/01/07 19:41:48;;;;;;;1.50;1.40;;;0.70;99.90;1.60;102550.00;;;;5042311;28;20177;-79
2024/01/07 19:44:55;;;;;;;1.80;1.37;;;0.60;99.90;2.00;102551.00;;;;5031430;28;20290;-79
2024/01/07 19:47:59;;;;;;;1.27;1.23;;;0.60;99.90;2.10;102475.00;;;;5057089;28;20190;-79
2024/01/07 19:54:19;;;;;;;0.73;0.73;;;0.60;99.90;2.00;102538.00;;;;5060437;28;20200;-79
2024/01/07 19:56:50;;;;;;;0.60;0.60;;;0.70;99.90;1.80;102504.00;;;;5052872;28;20192;-79